Dale, Wisconsin
Current Conditions -  °F | °C
As of 3:15 AM on Thursday 18 Dec 2014 (Local Time) from KATW Reporting Station
Overcast Overcast  
Wind Chill: 18°   Ceiling: 1500
Heat Index: 25°   Visibility: 10mi
Dew Point: 21°   Wind: 6mph
Humidity: 86%   Direction: 310°NW
Pressure: 30.25"   Gusts: NA
Location:  44.27°N, 88.68°W
Report Text: KATW 180915Z AUTO 31005KT 10SM OVC015 M04/M06 A3025 RMK AO2
Loading
Personal Weather Stations






























Interactive Weather Map New forecast layout! Learn more

10-Day Weather Forecast

Advertisements
Track Severe Weather on mobile